createdAt,value
2022-08-22T00:00:43.717Z,17.53
2022-08-22T00:02:45.174Z,19.47
2022-08-22T00:02:46.943Z,17.92
2022-08-22T00:03:15.594Z,17.69
2022-08-22T00:03:29.163Z,17.50
2022-08-22T00:06:09.306Z,17.60
2022-08-22T00:08:47.152Z,17.51
2022-08-22T00:11:25.933Z,17.44
2022-08-22T00:14:02.168Z,17.47
2022-08-22T00:16:36.339Z,17.46
2022-08-22T00:19:18.245Z,17.53
2022-08-22T00:21:52.525Z,17.56
2022-08-22T00:24:30.201Z,17.52
2022-08-22T00:27:04.569Z,17.50
2022-08-22T00:29:39.772Z,17.55
2022-08-22T00:32:13.951Z,17.65
2022-08-22T00:34:52.240Z,17.48
2022-08-22T00:37:27.428Z,17.47
2022-08-22T00:40:04.002Z,17.46
2022-08-22T00:43:07.527Z,17.42
2022-08-22T00:46:08.967Z,17.42
2022-08-22T00:49:01.162Z,17.47
2022-08-22T00:52:05.879Z,17.40
2022-08-22T00:54:57.451Z,17.47
2022-08-22T00:57:42.678Z,17.57
2022-08-22T01:00:16.494Z,17.56
2022-08-22T01:03:11.336Z,17.49
2022-08-22T01:05:54.219Z,17.56
2022-08-22T01:08:40.696Z,17.62
2022-08-22T01:11:29.489Z,17.57
2022-08-22T01:14:14.653Z,17.46
2022-08-22T01:17:18.266Z,17.50
2022-08-22T01:20:20.119Z,17.48
2022-08-22T01:23:35.518Z,17.46
2022-08-22T01:26:44.708Z,17.53
2022-08-22T01:29:45.442Z,17.58
2022-08-22T01:33:07.369Z,17.49
2022-08-22T01:36:11.504Z,17.56
2022-08-22T01:39:01.005Z,17.51
2022-08-22T01:42:12.747Z,17.63
2022-08-22T01:45:11.872Z,17.50
2022-08-22T01:47:49.112Z,17.48
2022-08-22T01:50:26.758Z,17.36
2022-08-22T01:53:03.847Z,17.35
2022-08-22T01:55:37.208Z,17.39
2022-08-22T01:58:17.088Z,17.45
2022-08-22T02:01:10.130Z,17.51
2022-08-22T02:03:44.983Z,17.54
2022-08-22T02:06:22.798Z,17.51
2022-08-22T02:09:00.787Z,17.52
2022-08-22T02:11:39.947Z,17.51
2022-08-22T02:14:18.991Z,17.43
2022-08-22T02:16:52.037Z,17.43
2022-08-22T02:19:28.057Z,17.46
2022-08-22T02:22:01.334Z,17.46
2022-08-22T02:24:46.279Z,17.50
2022-08-22T02:27:25.419Z,17.56
2022-08-22T02:30:05.595Z,17.48
2022-08-22T02:32:51.086Z,17.46
2022-08-22T02:35:26.781Z,17.47
2022-08-22T02:38:07.310Z,17.57
2022-08-22T02:40:42.656Z,17.52
2022-08-22T02:43:20.194Z,17.54
2022-08-22T02:45:54.755Z,17.65
2022-08-22T02:48:35.703Z,17.59
2022-08-22T02:51:15.942Z,17.54
2022-08-22T02:53:53.281Z,17.48
2022-08-22T02:56:31.764Z,17.52
2022-08-22T02:59:13.657Z,17.53
2022-08-22T03:01:44.275Z,17.54
2022-08-22T03:04:47.137Z,17.27
2022-08-22T03:07:28.036Z,17.48
2022-08-22T03:10:04.783Z,17.47
2022-08-22T03:12:44.944Z,17.50
2022-08-22T03:15:21.780Z,17.46
2022-08-22T03:17:57.349Z,17.45
2022-08-22T03:20:42.730Z,17.37
2022-08-22T03:23:21.891Z,17.38
2022-08-22T03:25:59.731Z,17.36
2022-08-22T03:28:37.377Z,17.36
2022-08-22T03:31:14.532Z,17.23
2022-08-22T03:33:43.155Z,17.27
2022-08-22T03:36:27.036Z,17.17
2022-08-22T03:39:17.575Z,17.08
2022-08-22T03:42:23.101Z,17.03
2022-08-22T03:45:24.609Z,16.93
2022-08-22T03:48:21.452Z,16.93
2022-08-22T03:51:13.205Z,16.93
2022-08-22T03:54:16.910Z,16.89
2022-08-22T03:57:19.325Z,16.89
2022-08-22T04:00:07.714Z,16.90
2022-08-22T04:03:00.869Z,16.80
2022-08-22T04:06:01.194Z,16.96
2022-08-22T04:08:53.106Z,16.93
2022-08-22T04:11:44.493Z,16.97
2022-08-22T04:14:36.318Z,16.94
2022-08-22T04:17:37.032Z,16.80
2022-08-22T04:20:35.882Z,16.82
2022-08-22T04:23:28.808Z,16.85
2022-08-22T04:26:00.765Z,16.80
2022-08-22T04:28:43.225Z,16.72
2022-08-22T04:31:14.484Z,16.69
2022-08-22T04:33:48.555Z,16.71
2022-08-22T04:36:24.877Z,16.67
2022-08-22T04:39:01.295Z,16.67
2022-08-22T04:41:38.352Z,16.65
2022-08-22T04:44:13.437Z,16.73
2022-08-22T04:46:48.525Z,16.71
2022-08-22T04:49:24.680Z,16.76
2022-08-22T04:52:11.556Z,16.75
2022-08-22T04:54:55.505Z,16.78
2022-08-22T04:57:32.734Z,16.83
2022-08-22T05:00:02.507Z,16.97
2022-08-22T05:02:31.287Z,17.11
2022-08-22T05:05:04.512Z,17.13
2022-08-22T05:07:43.401Z,17.10
2022-08-22T05:10:18.715Z,17.28
2022-08-22T05:12:51.850Z,17.25
2022-08-22T05:15:23.569Z,17.35
2022-08-22T05:17:55.085Z,17.32
2022-08-22T05:20:27.188Z,17.49
2022-08-22T05:23:16.972Z,17.53
2022-08-22T05:25:51.749Z,17.65
2022-08-22T05:28:33.764Z,17.63
2022-08-22T05:31:08.314Z,17.74
2022-08-22T05:33:42.625Z,17.81
2022-08-22T05:36:14.823Z,17.90
2022-08-22T05:38:49.464Z,17.82
2022-08-22T05:41:25.103Z,17.93
2022-08-22T05:43:54.535Z,17.91
2022-08-22T05:46:26.962Z,17.89
2022-08-22T05:49:00.083Z,17.87
2022-08-22T05:51:40.780Z,17.81
2022-08-22T05:54:15.589Z,17.82
2022-08-22T05:56:49.890Z,17.74
2022-08-22T05:59:26.293Z,17.83
2022-08-22T06:02:03.805Z,17.89
2022-08-22T06:04:38.002Z,17.84
2022-08-22T06:07:10.698Z,17.81
2022-08-22T06:10:03.885Z,17.92
2022-08-22T06:12:37.858Z,17.92
2022-08-22T06:15:14.154Z,17.99
2022-08-22T06:17:45.741Z,17.98
2022-08-22T06:20:19.595Z,18.01
2022-08-22T06:22:53.002Z,18.02
2022-08-22T06:25:26.344Z,17.95
2022-08-22T06:27:58.358Z,18.07
2022-08-22T06:30:29.975Z,18.07
2022-08-22T06:33:03.890Z,18.11
2022-08-22T06:35:51.663Z,18.02
2022-08-22T06:38:21.670Z,18.12
2022-08-22T06:40:51.132Z,18.24
2022-08-22T06:43:21.828Z,18.33
2022-08-22T06:45:51.296Z,18.21
2022-08-22T06:48:22.024Z,18.16
2022-08-22T06:50:54.815Z,18.25
2022-08-22T06:53:26.810Z,18.30
2022-08-22T06:55:57.495Z,18.37
2022-08-22T06:58:32.319Z,18.37
2022-08-22T07:01:11.683Z,18.38
2022-08-22T07:03:46.227Z,18.40
2022-08-22T07:06:17.135Z,18.44
2022-08-22T07:08:45.582Z,18.46
2022-08-22T07:11:22.263Z,18.51
2022-08-22T07:13:59.945Z,18.52
2022-08-22T07:16:33.136Z,18.56
2022-08-22T07:19:01.877Z,18.66
2022-08-22T07:21:41.518Z,18.60
2022-08-22T07:24:12.051Z,18.48
2022-08-22T07:26:51.702Z,18.63
2022-08-22T07:29:30.026Z,18.70
2022-08-22T07:32:11.524Z,18.73
2022-08-22T07:34:53.605Z,18.78
2022-08-22T07:37:32.482Z,18.98
2022-08-22T07:40:07.733Z,19.05
2022-08-22T07:42:44.615Z,18.99
2022-08-22T07:45:22.091Z,19.07
2022-08-22T07:48:04.810Z,19.15
2022-08-22T07:50:38.163Z,19.19
2022-08-22T07:53:15.708Z,19.22
2022-08-22T07:55:49.596Z,19.25
2022-08-22T07:58:19.651Z,19.38
2022-08-22T08:00:51.780Z,19.41
2022-08-22T08:03:23.723Z,19.32
2022-08-22T08:05:52.120Z,19.43
2022-08-22T08:08:25.102Z,19.53
2022-08-22T08:10:56.297Z,19.46
2022-08-22T08:13:30.211Z,19.32
2022-08-22T08:16:00.610Z,19.47
2022-08-22T08:18:34.143Z,19.58
2022-08-22T08:21:06.162Z,20.02
2022-08-22T08:23:43.039Z,20.92
2022-08-22T08:26:17.335Z,21.30
2022-08-22T08:28:46.531Z,21.51
2022-08-22T08:31:23.872Z,21.43
2022-08-22T08:33:59.276Z,21.26
2022-08-22T08:36:46.286Z,20.91
2022-08-22T08:39:25.311Z,20.78
2022-08-22T08:42:28.250Z,20.53
2022-08-22T08:45:11.060Z,20.90
2022-08-22T08:48:03.627Z,21.34
2022-08-22T08:50:47.547Z,21.53
2022-08-22T08:53:35.474Z,21.46
2022-08-22T08:56:08.504Z,21.23
2022-08-22T08:58:44.396Z,21.24
2022-08-22T09:01:27.477Z,21.09
2022-08-22T09:04:32.043Z,21.05
2022-08-22T09:07:40.602Z,21.10
2022-08-22T09:13:41.879Z,20.85
2022-08-22T09:20:22.579Z,20.54
2022-08-22T09:23:25.944Z,20.53
2022-08-22T09:26:01.313Z,20.55
2022-08-22T09:28:38.714Z,20.67
2022-08-22T09:31:32.804Z,20.39
2022-08-22T09:34:24.246Z,20.79
2022-08-22T09:37:14.234Z,20.75
2022-08-22T09:39:55.545Z,20.66
2022-08-22T09:42:32.925Z,20.61
2022-08-22T09:45:38.949Z,20.78
2022-08-22T09:48:26.680Z,20.79
2022-08-22T09:51:26.668Z,20.85
2022-08-22T09:54:06.828Z,20.62
2022-08-22T09:56:39.652Z,20.80
2022-08-22T09:59:14.812Z,21.18
2022-08-22T10:01:51.333Z,20.97
2022-08-22T10:04:46.194Z,20.71
2022-08-22T10:07:38.859Z,21.31
2022-08-22T10:10:24.535Z,21.15
2022-08-22T10:13:00.810Z,21.66
2022-08-22T10:15:38.221Z,21.34
2022-08-22T10:18:19.486Z,21.19
2022-08-22T10:21:03.278Z,20.95
2022-08-22T10:23:39.867Z,20.94
2022-08-22T10:26:22.695Z,20.64
2022-08-22T10:28:58.307Z,20.31
2022-08-22T10:31:46.053Z,20.73
2022-08-22T10:34:31.836Z,21.10
2022-08-22T10:37:11.230Z,21.15
2022-08-22T10:39:47.966Z,21.21
2022-08-22T10:42:28.508Z,21.26
2022-08-22T10:45:35.078Z,21.10
2022-08-22T10:48:35.804Z,21.12
2022-08-22T10:51:19.517Z,21.10
2022-08-22T10:54:00.265Z,21.55
2022-08-22T10:56:34.091Z,21.64
2022-08-22T10:59:16.490Z,21.69
2022-08-22T11:01:52.486Z,21.53
2022-08-22T11:04:39.260Z,21.57
2022-08-22T11:07:21.412Z,21.45
2022-08-22T11:09:59.383Z,21.57
2022-08-22T11:12:37.327Z,21.49
2022-08-22T11:15:28.253Z,21.59
2022-08-22T11:18:21.787Z,21.13
2022-08-22T11:21:01.011Z,21.13
2022-08-22T11:23:44.802Z,21.03
2022-08-22T11:26:33.610Z,21.12
2022-08-22T11:29:34.840Z,21.05
2022-08-22T11:32:12.992Z,20.86
2022-08-22T11:34:54.166Z,20.75
2022-08-22T11:37:44.352Z,20.87
2022-08-22T11:40:34.364Z,21.05
2022-08-22T11:43:17.340Z,21.11
2022-08-22T11:45:49.929Z,20.90
2022-08-22T11:48:25.768Z,20.90
2022-08-22T11:51:13.327Z,21.14
2022-08-22T11:53:48.714Z,21.25
2022-08-22T11:56:27.004Z,21.48
2022-08-22T11:59:00.742Z,21.43
2022-08-22T12:01:37.569Z,21.36
2022-08-22T12:04:15.348Z,21.47
2022-08-22T12:06:51.752Z,21.57
2022-08-22T12:09:32.116Z,21.79
2022-08-22T12:12:18.140Z,21.89
2022-08-22T12:14:55.547Z,22.08
2022-08-22T12:18:01.433Z,22.09
2022-08-22T12:21:00.915Z,22.08
2022-08-22T12:24:06.167Z,22.10
2022-08-22T12:26:51.076Z,22.12
2022-08-22T12:29:44.776Z,21.54
2022-08-22T12:32:45.741Z,21.67
2022-08-22T12:35:30.256Z,21.48
2022-08-22T12:38:28.549Z,21.44
2022-08-22T12:41:27.993Z,21.50
2022-08-22T12:44:17.232Z,21.61
2022-08-22T12:46:56.035Z,21.39
2022-08-22T12:49:42.627Z,21.45
2022-08-22T12:52:33.153Z,21.64
2022-08-22T12:55:24.910Z,21.77
2022-08-22T12:58:02.394Z,21.74
2022-08-22T13:00:34.824Z,21.49
2022-08-22T13:03:07.343Z,21.27
2022-08-22T13:05:41.050Z,21.47
2022-08-22T13:08:13.902Z,21.51
2022-08-22T13:10:51.917Z,21.24
2022-08-22T13:13:37.126Z,21.36
2022-08-22T13:16:09.295Z,21.42
2022-08-22T13:18:46.884Z,21.42
2022-08-22T13:21:31.390Z,21.38
2022-08-22T13:24:10.528Z,21.64
2022-08-22T13:26:48.999Z,21.35
2022-08-22T13:29:26.784Z,21.35
2022-08-22T13:32:00.601Z,21.39
2022-08-22T13:34:39.975Z,21.48
2022-08-22T13:37:15.194Z,21.79
2022-08-22T13:39:47.133Z,21.87
2022-08-22T13:42:30.300Z,21.81
2022-08-22T13:45:02.851Z,22.04
2022-08-22T13:47:35.847Z,22.07
2022-08-22T13:50:14.748Z,22.00
2022-08-22T13:52:52.337Z,21.75
2022-08-22T13:55:30.255Z,21.77
2022-08-22T13:58:06.959Z,22.01
2022-08-22T14:01:07.998Z,21.98
2022-08-22T14:03:42.149Z,21.50
2022-08-22T14:06:37.044Z,21.49
2022-08-22T14:09:14.886Z,21.45
2022-08-22T14:11:50.288Z,21.58
2022-08-22T14:14:28.129Z,21.46
2022-08-22T14:17:00.632Z,21.54
2022-08-22T14:19:52.946Z,21.51
2022-08-22T14:22:32.509Z,21.34
2022-08-22T14:25:08.849Z,21.56
2022-08-22T14:27:40.007Z,21.60
2022-08-22T14:30:19.039Z,21.51
2022-08-22T14:32:51.765Z,21.50
2022-08-22T14:35:35.307Z,21.22
2022-08-22T14:38:30.002Z,21.16
2022-08-22T14:41:09.230Z,21.09
2022-08-22T14:43:49.417Z,21.02
2022-08-22T14:46:27.528Z,21.07
2022-08-22T14:49:29.586Z,21.10
2022-08-22T14:52:04.151Z,21.13
2022-08-22T14:54:36.116Z,21.14
2022-08-22T14:57:10.388Z,20.97
2022-08-22T14:59:50.051Z,20.84
2022-08-22T15:02:29.307Z,21.02
2022-08-22T15:05:01.599Z,21.23
2022-08-22T15:07:34.943Z,21.32
2022-08-22T15:10:07.481Z,21.16
2022-08-22T15:12:46.800Z,21.13
2022-08-22T15:15:30.439Z,20.96
2022-08-22T15:18:00.920Z,20.96
2022-08-22T15:20:36.272Z,20.85
2022-08-22T15:23:16.280Z,20.71
2022-08-22T15:25:47.282Z,20.80
2022-08-22T15:28:20.857Z,20.75
2022-08-22T15:31:00.033Z,20.62
2022-08-22T15:33:35.988Z,20.49
2022-08-22T15:36:15.847Z,20.29
2022-08-22T15:38:48.202Z,20.15
2022-08-22T15:41:45.083Z,20.14
2022-08-22T15:44:30.816Z,20.38
2022-08-22T15:47:06.185Z,20.48
2022-08-22T15:49:51.885Z,20.49
2022-08-22T15:52:28.501Z,20.59
2022-08-22T15:55:20.678Z,20.50
2022-08-22T15:58:09.378Z,20.51
2022-08-22T16:00:45.038Z,20.54
2022-08-22T16:03:25.173Z,20.26
2022-08-22T16:05:57.958Z,20.42
2022-08-22T16:08:32.960Z,20.55
2022-08-22T16:11:21.913Z,20.38
2022-08-22T16:14:17.606Z,20.31
2022-08-22T16:17:09.620Z,20.18
2022-08-22T16:19:38.285Z,20.28
2022-08-22T16:22:13.017Z,20.33
2022-08-22T16:25:10.268Z,20.37
2022-08-22T16:27:53.357Z,20.32
2022-08-22T16:30:34.685Z,20.01
2022-08-22T16:33:04.739Z,20.13
2022-08-22T16:36:15.561Z,20.17
2022-08-22T16:38:48.701Z,20.19
2022-08-22T16:41:32.514Z,20.14
2022-08-22T16:44:41.877Z,20.10
2022-08-22T16:47:15.073Z,20.20
2022-08-22T16:49:58.823Z,20.07
2022-08-22T16:52:53.444Z,20.19
2022-08-22T16:55:42.978Z,20.19
2022-08-22T16:58:19.904Z,20.00
2022-08-22T17:00:57.871Z,20.10
2022-08-22T17:03:38.720Z,20.04
2022-08-22T17:06:26.036Z,19.97
2022-08-22T17:09:04.488Z,19.91
2022-08-22T17:11:49.406Z,19.91
2022-08-22T17:14:28.770Z,19.97
2022-08-22T17:17:15.470Z,20.02
2022-08-22T17:19:57.143Z,19.91
2022-08-22T17:22:34.131Z,19.94
2022-08-22T17:25:20.494Z,19.87
2022-08-22T17:27:54.775Z,19.81
2022-08-22T17:30:26.891Z,19.95
2022-08-22T17:33:10.971Z,19.90
2022-08-22T17:35:55.041Z,19.89
2022-08-22T17:38:35.914Z,19.86
2022-08-22T17:41:13.275Z,19.88
2022-08-22T17:43:56.734Z,19.90
2022-08-22T17:46:35.458Z,19.85
2022-08-22T17:49:15.547Z,19.73
2022-08-22T17:51:51.720Z,19.69
2022-08-22T17:54:29.516Z,19.75
2022-08-22T17:57:05.875Z,19.66
2022-08-22T17:59:45.968Z,19.61
2022-08-22T18:02:20.396Z,19.56
2022-08-22T18:04:59.393Z,19.63
2022-08-22T18:07:40.080Z,19.55
2022-08-22T18:10:21.310Z,19.54
2022-08-22T18:13:01.417Z,19.54
2022-08-22T18:15:43.521Z,19.53
2022-08-22T18:18:23.373Z,19.44
2022-08-22T18:20:59.040Z,19.47
2022-08-22T18:23:39.846Z,19.53
2022-08-22T18:26:21.864Z,19.44
2022-08-22T18:28:56.067Z,19.40
2022-08-22T18:31:38.696Z,19.32
2022-08-22T18:34:20.236Z,19.33
2022-08-22T18:36:55.651Z,19.38
2022-08-22T18:39:27.220Z,19.30
2022-08-22T18:42:03.871Z,19.28
2022-08-22T18:44:35.244Z,19.25
2022-08-22T18:47:14.319Z,19.21
2022-08-22T18:49:54.313Z,19.25
2022-08-22T18:52:41.734Z,19.17
2022-08-22T18:55:45.944Z,19.28
2022-08-22T18:59:05.162Z,19.21
2022-08-22T19:01:47.615Z,19.30
2022-08-22T19:04:34.037Z,19.28
2022-08-22T19:07:21.859Z,19.22
2022-08-22T19:10:35.708Z,19.30
2022-08-22T19:13:21.634Z,19.26
2022-08-22T19:16:02.479Z,19.31
2022-08-22T19:18:37.447Z,19.29
2022-08-22T19:21:39.670Z,19.19
2022-08-22T19:24:11.118Z,19.20
2022-08-22T19:26:42.874Z,19.16
2022-08-22T19:30:03.081Z,19.20
2022-08-22T19:32:59.478Z,19.21
2022-08-22T19:35:37.313Z,19.24
2022-08-22T19:38:08.600Z,19.20
2022-08-22T19:40:56.207Z,19.25
2022-08-22T19:43:38.840Z,19.24
2022-08-22T19:46:09.509Z,19.25
2022-08-22T19:48:47.570Z,19.09
2022-08-22T19:51:29.792Z,19.09
2022-08-22T19:54:16.471Z,19.09
2022-08-22T19:57:10.311Z,19.08
2022-08-22T20:00:00.373Z,19.07
2022-08-22T20:02:37.604Z,19.14
2022-08-22T20:05:27.796Z,18.96
2022-08-22T20:08:09.218Z,18.83
2022-08-22T20:10:48.747Z,18.72
2022-08-22T20:13:22.270Z,18.64
2022-08-22T20:16:07.488Z,18.58
2022-08-22T20:19:09.565Z,18.50
2022-08-22T20:21:46.430Z,18.45
2022-08-22T20:24:17.629Z,18.47
2022-08-22T20:27:12.162Z,18.49
2022-08-22T20:29:39.787Z,18.31
2022-08-22T20:32:08.630Z,18.33
2022-08-22T20:34:40.574Z,18.25
2022-08-22T20:37:32.304Z,18.22
2022-08-22T20:40:38.031Z,18.09
2022-08-22T20:43:18.980Z,18.13
2022-08-22T20:46:03.004Z,18.19
2022-08-22T20:48:37.628Z,18.08
2022-08-22T20:51:06.999Z,18.03
2022-08-22T20:53:35.449Z,18.03
2022-08-22T20:56:07.292Z,17.96
2022-08-22T20:58:43.899Z,17.86
2022-08-22T21:01:13.502Z,17.88
2022-08-22T21:03:45.652Z,17.75
2022-08-22T21:06:16.948Z,17.57
2022-08-22T21:08:46.798Z,17.64
2022-08-22T21:11:39.843Z,17.61
2022-08-22T21:14:21.582Z,17.54
2022-08-22T21:16:50.239Z,17.47
2022-08-22T21:19:20.185Z,17.55
2022-08-22T21:21:48.329Z,17.47
2022-08-22T21:24:16.785Z,17.43
2022-08-22T21:26:51.041Z,17.44
2022-08-22T21:29:32.878Z,17.31
2022-08-22T21:32:24.538Z,17.18
2022-08-22T21:34:53.649Z,17.18
2022-08-22T21:37:30.288Z,17.17
2022-08-22T21:40:03.234Z,17.18
2022-08-22T21:42:35.788Z,17.12
2022-08-22T21:45:08.339Z,17.09
2022-08-22T21:47:38.542Z,17.06
2022-08-22T21:50:15.741Z,17.04
2022-08-22T21:52:45.837Z,17.04
2022-08-22T21:55:16.311Z,16.95
2022-08-22T21:57:44.941Z,16.89
2022-08-22T22:00:48.872Z,16.74
2022-08-22T22:03:20.442Z,16.74
2022-08-22T22:05:49.593Z,16.75
2022-08-22T22:08:18.771Z,16.73
2022-08-22T22:10:49.097Z,16.70
2022-08-22T22:13:17.805Z,16.70
2022-08-22T22:15:49.006Z,16.67
2022-08-22T22:18:19.882Z,16.71
2022-08-22T22:20:49.719Z,16.76
2022-08-22T22:23:18.358Z,16.79
2022-08-22T22:25:47.320Z,16.81
2022-08-22T22:28:18.356Z,16.70
2022-08-22T22:30:51.724Z,16.66
2022-08-22T22:33:20.187Z,16.63
2022-08-22T22:35:49.771Z,16.77
2022-08-22T22:38:23.245Z,16.82
2022-08-22T22:40:52.612Z,16.76
2022-08-22T22:43:20.847Z,16.62
2022-08-22T22:45:50.357Z,16.52
2022-08-22T22:48:24.322Z,16.46
2022-08-22T22:50:53.403Z,16.48
2022-08-22T22:53:33.710Z,16.42
2022-08-22T22:56:09.377Z,16.39
2022-08-22T22:58:38.841Z,16.43
2022-08-22T23:01:10.845Z,16.30
2022-08-22T23:03:39.034Z,16.30
2022-08-22T23:06:12.369Z,16.18
2022-08-22T23:08:40.829Z,16.25
2022-08-22T23:11:11.703Z,16.27
2022-08-22T23:13:42.954Z,16.39
2022-08-22T23:16:16.492Z,16.33
2022-08-22T23:18:45.555Z,16.25
2022-08-22T23:21:15.464Z,16.31
2022-08-22T23:23:44.203Z,16.28
2022-08-22T23:26:12.967Z,16.38
2022-08-22T23:28:41.624Z,16.38
2022-08-22T23:31:13.605Z,16.47
2022-08-22T23:33:41.772Z,16.54
2022-08-22T23:36:15.218Z,16.47
2022-08-22T23:38:43.867Z,16.54
2022-08-22T23:41:13.638Z,16.65
2022-08-22T23:43:43.397Z,16.60
2022-08-22T23:46:13.876Z,16.51
2022-08-22T23:48:42.671Z,16.52
2022-08-22T23:51:11.189Z,16.49
2022-08-22T23:53:39.961Z,16.45
2022-08-22T23:56:19.202Z,16.38
2022-08-22T23:58:47.568Z,16.38
